Time;durP1;ratioP1;P1;durP2;ratioP2;P2;SDS_P1;SDS_P2;PMS_P1;PMS_P2;Temp;Humidity;BMP_temperature;BMP_pressure;BME280_temperature;BME280_humidity;BME280_pressure;Samples;Min_cycle;Max_cycle;Signal;HPM_P1;HPM_P2
2021/07/08 00:00:07;;;;;;;5.30;4.80;;;;;;;16.27;82.13;101947.94;5026482;28;20215;-74
2021/07/08 00:02:32;;;;;;;4.83;4.50;;;;;;;16.08;81.97;101912.78;5025261;28;20435;-74
2021/07/08 00:04:57;;;;;;;6.83;5.10;;;;;;;16.10;82.97;101957.53;5025571;28;20444;-74
2021/07/08 00:07:23;;;;;;;5.10;4.70;;;;;;;15.86;83.08;101921.13;5026735;28;20826;-73
2021/07/08 00:09:48;;;;;;;5.40;4.47;;;;;;;15.76;83.91;101937.72;5030441;28;20208;-73
2021/07/08 00:12:13;;;;;;;5.80;5.20;;;;;;;16.17;82.00;101949.41;5030895;28;20785;-73
2021/07/08 00:14:39;;;;;;;4.80;4.40;;;;;;;16.12;82.21;101962.75;5031736;28;20267;-74
2021/07/08 00:17:08;;;;;;;5.63;5.03;;;;;;;15.40;83.07;101884.00;5033050;28;20195;-74
2021/07/08 00:19:34;;;;;;;5.93;4.90;;;;;;;15.59;83.35;101929.19;5030761;28;20204;-73
2021/07/08 00:22:00;;;;;;;5.37;4.97;;;;;;;15.69;83.41;101936.09;5034411;28;20526;-73
2021/07/08 00:24:26;;;;;;;5.27;4.40;;;;;;;16.14;82.10;101968.78;5031778;28;20445;-73
2021/07/08 00:26:51;;;;;;;7.33;4.77;;;;;;;15.73;82.71;101903.00;5032612;28;20241;-73
2021/07/08 00:29:16;;;;;;;5.23;4.80;;;;;;;16.16;82.50;101959.41;5034701;28;20208;-74
2021/07/08 00:31:44;;;;;;;4.70;4.30;;;;;;;16.26;82.47;101980.66;5036328;28;20234;-73
2021/07/08 00:34:09;;;;;;;5.50;5.00;;;;;;;15.85;83.31;101988.94;5032094;28;20188;-74
2021/07/08 00:36:35;;;;;;;6.70;4.43;;;;;;;15.91;83.92;101985.41;5026855;28;20452;-74
2021/07/08 00:39:01;;;;;;;5.03;4.50;;;;;;;15.84;84.52;101966.47;5029531;28;20216;-73
2021/07/08 00:41:26;;;;;;;8.00;5.47;;;;;;;15.97;84.22;101981.91;5029018;28;20684;-73
2021/07/08 00:43:52;;;;;;;5.30;4.80;;;;;;;15.92;84.00;101941.09;5030394;28;20188;-74
2021/07/08 00:46:21;;;;;;;8.23;4.50;;;;;;;16.00;84.15;101995.03;5032228;28;20271;-73
2021/07/08 00:48:47;;;;;;;6.03;4.60;;;;;;;16.00;83.74;101957.97;5029553;28;20474;-74
2021/07/08 00:51:13;;;;;;;5.60;4.73;;;;;;;16.02;84.01;101973.97;5030642;28;20550;-74
2021/07/08 00:53:38;;;;;;;6.70;4.40;;;;;;;15.54;84.06;101907.31;5031604;28;20438;-74
2021/07/08 00:56:05;;;;;;;7.00;4.63;;;;;;;15.63;85.43;101964.75;5029056;28;20242;-74
2021/07/08 00:58:31;;;;;;;5.13;4.73;;;;;;;16.09;84.32;101995.66;5030925;28;20190;-73
2021/07/08 01:00:57;;;;;;;4.70;4.30;;;;;;;15.92;84.64;101996.03;5030440;28;20545;-73
2021/07/08 01:03:24;;;;;;;9.57;4.50;;;;;;;15.98;83.84;101981.69;5031331;28;22601;-74
2021/07/08 01:05:52;;;;;;;7.00;5.00;;;;;;;15.98;84.27;102005.22;5031478;28;20528;-74
2021/07/08 01:08:18;;;;;;;5.03;4.50;;;;;;;15.94;84.64;101993.97;5029332;28;20541;-74
2021/07/08 01:10:49;;;;;;;4.87;4.47;;;;;;;15.68;84.33;101939.81;5029705;28;20535;-74
2021/07/08 01:13:20;;;;;;;4.77;4.37;;;;;;;15.47;84.11;101905.63;5030074;28;20443;-74
2021/07/08 01:15:45;;;;;;;5.37;4.83;;;;;;;15.30;84.79;101900.63;5030676;28;20450;-74
2021/07/08 01:18:11;;;;;;;5.23;4.23;;;;;;;16.11;83.91;101983.56;5032399;28;20450;-73
2021/07/08 01:20:38;;;;;;;5.60;4.60;;;;;;;16.23;82.98;101973.78;5028846;28;20217;-74
2021/07/08 01:23:04;;;;;;;7.70;4.70;;;;;;;16.08;83.76;101981.25;5033092;28;20192;-74
2021/07/08 01:25:32;;;;;;;5.50;4.73;;;;;;;15.78;84.21;101951.06;5037656;28;20483;-73
2021/07/08 01:27:59;;;;;;;11.93;5.53;;;;;;;16.04;83.49;101975.44;5027612;28;20571;-74
2021/07/08 01:30:25;;;;;;;5.63;4.83;;;;;;;16.20;82.37;101970.66;5028418;28;20536;-74
2021/07/08 01:32:51;;;;;;;6.90;4.40;;;;;;;15.47;83.13;101895.66;5027613;28;21220;-74
2021/07/08 01:35:21;;;;;;;5.43;4.90;;;;;;;15.25;83.66;101888.75;5031801;28;20835;-74
2021/07/08 01:37:46;;;;;;;5.43;4.90;;;;;;;15.72;84.29;101974.38;5033353;28;20199;-74
2021/07/08 01:40:14;;;;;;;10.37;4.60;;;;;;;15.67;84.44;101968.69;5036784;28;20505;-74
2021/07/08 01:42:40;;;;;;;5.00;4.50;;;;;;;15.78;82.46;101946.50;5035825;28;20192;-74
2021/07/08 01:45:07;;;;;;;5.83;4.47;;;;;;;15.49;83.68;101936.00;5031951;28;20500;-74
2021/07/08 01:47:33;;;;;;;5.03;4.50;;;;;;;15.24;82.91;101896.00;5034683;28;20203;-74
2021/07/08 01:49:59;;;;;;;4.50;4.10;;;;;;;15.48;84.33;101969.50;5030005;28;21225;-74
2021/07/08 01:52:25;;;;;;;6.07;4.67;;;;;;;15.81;83.37;101975.81;5029646;28;20228;-74
2021/07/08 01:54:51;;;;;;;6.93;5.40;;;;;;;15.87;83.62;101976.06;5031043;28;20592;-73
2021/07/08 01:57:16;;;;;;;7.93;5.00;;;;;;;15.79;82.39;101915.72;5029690;28;22312;-73
2021/07/08 01:59:42;;;;;;;6.40;4.67;;;;;;;15.52;82.33;101879.66;5031465;28;20952;-74
2021/07/08 02:02:07;;;;;;;5.70;4.57;;;;;;;15.49;84.23;101981.97;5033856;28;20588;-73
2021/07/08 02:04:32;;;;;;;5.63;4.53;;;;;;;15.33;84.49;101965.09;5031737;28;20203;-74
2021/07/08 02:06:58;;;;;;;8.20;5.10;;;;;;;15.65;83.24;101972.63;5036965;28;20185;-74
2021/07/08 02:09:24;;;;;;;5.87;5.17;;;;;;;15.31;83.91;101887.94;5030873;28;20226;-74
2021/07/08 02:11:50;;;;;;;6.77;4.80;;;;;;;15.46;83.03;101896.69;5032089;28;20188;-73
2021/07/08 02:14:15;;;;;;;7.53;5.07;;;;;;;15.44;85.87;101962.81;5033847;28;20437;-74
2021/07/08 02:16:41;;;;;;;7.90;5.60;;;;;;;15.14;86.34;101915.31;5031397;28;20188;-74
2021/07/08 02:19:07;;;;;;;6.13;4.70;;;;;;;15.60;84.26;101925.41;5025574;28;20204;-74
2021/07/08 02:21:32;;;;;;;6.73;4.70;;;;;;;15.88;84.01;101983.97;5030116;28;20208;-74
2021/07/08 02:23:58;;;;;;;5.80;4.93;;;;;;;15.63;84.63;101969.31;5027246;28;20936;-74
2021/07/08 02:26:24;;;;;;;6.80;4.80;;;;;;;15.69;84.67;101958.56;5033696;28;20187;-73
2021/07/08 02:28:50;;;;;;;6.10;5.50;;;;;;;15.97;83.92;101990.84;5033957;28;20576;-73
2021/07/08 02:31:17;;;;;;;5.93;4.30;;;;;;;15.37;85.24;101938.47;5029650;28;20188;-74
2021/07/08 02:33:42;;;;;;;6.80;4.60;;;;;;;15.88;85.32;101996.66;5031274;28;20900;-73
2021/07/08 02:36:08;;;;;;;5.40;4.90;;;;;;;15.76;86.15;102004.53;5029843;28;20454;-73
2021/07/08 02:38:35;;;;;;;5.80;5.20;;;;;;;15.59;86.84;101996.78;5034057;28;20195;-74
2021/07/08 02:41:01;;;;;;;6.87;5.70;;;;;;;15.72;85.35;101998.72;5027746;28;20840;-73
2021/07/08 02:43:27;;;;;;;5.93;5.20;;;;;;;15.39;86.18;101952.63;5031026;28;20448;-74
2021/07/08 02:45:52;;;;;;;9.80;5.30;;;;;;;15.60;85.97;101995.72;5038875;28;20443;-73
2021/07/08 02:48:20;;;;;;;6.63;5.00;;;;;;;15.60;85.35;101951.63;5029214;28;20180;-74
2021/07/08 02:50:50;;;;;;;6.30;5.70;;;;;;;15.97;85.44;101998.97;5032365;28;20588;-73
2021/07/08 02:53:16;;;;;;;7.03;5.97;;;;;;;15.63;86.78;102004.50;5031881;28;20441;-74
2021/07/08 02:55:41;;;;;;;6.03;5.00;;;;;;;15.50;87.37;101999.84;5031584;28;20520;-73
2021/07/08 02:58:07;;;;;;;6.40;5.80;;;;;;;15.55;85.87;101960.34;5029763;28;20534;-74
2021/07/08 03:00:33;;;;;;;7.83;5.73;;;;;;;15.51;85.06;101940.19;5029980;28;20216;-74
2021/07/08 03:02:58;;;;;;;6.80;6.10;;;;;;;15.70;85.26;101981.00;5029209;28;20192;-74
2021/07/08 03:05:24;;;;;;;5.60;5.10;;;;;;;15.57;83.83;101927.72;5028589;28;20640;-73
2021/07/08 03:07:50;;;;;;;6.23;5.17;;;;;;;15.81;84.53;101999.34;5031373;28;20644;-73
2021/07/08 03:10:18;;;;;;;8.13;5.70;;;;;;;15.85;84.48;102010.59;5031434;28;20910;-74
2021/07/08 03:12:44;;;;;;;8.10;6.10;;;;;;;15.73;86.27;101997.66;5029513;28;20195;-73
2021/07/08 03:15:10;;;;;;;6.83;5.90;;;;;;;15.71;85.04;101986.22;5030393;28;20431;-73
2021/07/08 03:17:37;;;;;;;6.00;5.50;;;;;;;15.88;84.62;102002.91;5025719;28;20199;-73
2021/07/08 03:20:11;;;;;;;6.77;5.63;;;;;;;15.65;84.63;101945.59;5032146;28;20853;-73
2021/07/08 03:22:37;;;;;;;6.00;5.37;;;;;;;15.46;84.27;101941.84;5030405;28;20518;-73
2021/07/08 03:25:04;;;;;;;5.70;5.20;;;;;;;15.91;83.72;101999.81;5029181;28;20935;-74
2021/07/08 03:27:30;;;;;;;5.77;4.50;;;;;;;15.94;83.32;101980.44;5027918;28;21013;-74
2021/07/08 03:29:55;;;;;;;6.30;5.70;;;;;;;15.69;83.83;101984.75;5027773;28;20525;-73
2021/07/08 03:32:21;;;;;;;6.00;5.30;;;;;;;15.64;83.97;101955.59;5030268;28;20196;-73
2021/07/08 03:34:46;;;;;;;6.87;6.27;;;;;;;15.91;84.52;101988.13;5027724;28;20660;-73
2021/07/08 03:37:11;;;;;;;6.27;5.67;;;;;;;16.11;82.96;101966.47;5028440;28;20184;-73
2021/07/08 03:39:37;;;;;;;6.60;6.03;;;;;;;15.88;84.46;101983.97;5031522;28;20227;-73
2021/07/08 03:42:03;;;;;;;6.80;6.20;;;;;;;15.35;84.14;101927.03;5025811;28;20669;-73
2021/07/08 03:44:30;;;;;;;6.27;5.37;;;;;;;15.69;83.61;101987.47;5027569;28;20256;-73
2021/07/08 03:46:56;;;;;;;6.40;5.80;;;;;;;15.64;84.48;101987.22;5032942;28;20188;-73
2021/07/08 03:49:21;;;;;;;7.37;6.43;;;;;;;15.58;83.77;101949.13;5033408;28;20507;-73
2021/07/08 03:51:46;;;;;;;7.73;5.50;;;;;;;15.18;84.11;101886.03;5032814;28;20628;-73
2021/07/08 03:54:12;;;;;;;5.77;5.30;;;;;;;15.81;83.21;101988.53;5031307;28;21053;-73
2021/07/08 03:56:37;;;;;;;6.90;5.50;;;;;;;15.60;84.25;101973.28;5033950;28;20245;-73
2021/07/08 03:59:02;;;;;;;5.90;5.40;;;;;;;15.88;83.15;101975.84;5031253;28;20242;-74
2021/07/08 04:01:28;;;;;;;6.17;5.57;;;;;;;15.50;83.35;101943.06;5031862;28;20760;-73
2021/07/08 04:03:53;;;;;;;8.30;5.73;;;;;;;15.26;85.54;101990.41;5030719;28;20194;-74
2021/07/08 04:06:19;;;;;;;5.93;5.43;;;;;;;14.91;85.90;101925.63;5041770;28;20258;-73
2021/07/08 04:08:44;;;;;;;6.50;5.10;;;;;;;15.33;84.83;101954.28;5030322;28;20199;-73
2021/07/08 04:11:10;;;;;;;6.03;5.53;;;;;;;15.22;83.42;101897.28;5033381;28;20238;-74
2021/07/08 04:13:35;;;;;;;6.50;4.97;;;;;;;15.58;83.56;101961.81;5032438;28;20198;-74
2021/07/08 04:16:01;;;;;;;6.70;5.80;;;;;;;15.65;84.01;102003.25;5035932;28;20203;-74
2021/07/08 04:18:26;;;;;;;5.57;5.07;;;;;;;15.84;83.59;101990.81;5030853;28;20233;-74
2021/07/08 04:20:51;;;;;;;7.47;5.20;;;;;;;15.82;83.04;101965.84;5030586;28;20223;-73
2021/07/08 04:23:17;;;;;;;5.37;4.53;;;;;;;15.58;84.03;101964.53;5028718;28;20188;-74
2021/07/08 04:25:43;;;;;;;5.80;4.70;;;;;;;15.70;83.98;101986.41;5032489;28;20188;-74
2021/07/08 04:28:09;;;;;;;5.70;4.33;;;;;;;15.58;83.16;101956.41;5030386;28;20235;-74
2021/07/08 04:30:35;;;;;;;4.90;4.50;;;;;;;15.95;83.90;102011.88;5028331;28;20740;-74
2021/07/08 04:33:01;;;;;;;4.27;3.97;;;;;;;15.49;83.56;101952.22;5027576;28;20473;-73
2021/07/08 04:35:31;;;;;;;5.33;4.70;;;;;;;15.57;84.03;101957.47;5029590;28;20500;-73
2021/07/08 04:37:58;;;;;;;5.20;4.00;;;;;;;15.79;83.55;101982.47;5035547;28;20180;-73
2021/07/08 04:40:24;;;;;;;4.63;4.23;;;;;;;15.77;84.07;101982.69;5028452;28;20903;-73
2021/07/08 04:42:51;;;;;;;4.30;3.93;;;;;;;16.10;83.78;102010.84;5027020;28;20445;-73
2021/07/08 04:45:17;;;;;;;5.20;4.70;;;;;;;15.64;84.03;101958.28;5030866;28;20211;-74
2021/07/08 04:47:43;;;;;;;5.90;4.23;;;;;;;15.59;84.28;101948.09;5027377;28;20454;-74
2021/07/08 04:50:12;;;;;;;5.27;4.87;;;;;;;15.28;85.03;101937.84;5032799;28;22267;-73
2021/07/08 04:52:38;;;;;;;4.90;4.50;;;;;;;15.59;84.18;101947.25;5029235;28;20481;-74
2021/07/08 04:55:05;;;;;;;5.70;5.20;;;;;;;16.02;84.51;102025.41;5028152;28;20512;-73
2021/07/08 04:57:31;;;;;;;4.80;4.40;;;;;;;15.97;84.19;102009.78;5029407;28;20442;-74
2021/07/08 04:59:56;;;;;;;4.97;4.47;;;;;;;15.93;84.66;102000.41;5031356;28;20477;-74
2021/07/08 05:02:22;;;;;;;9.43;5.30;;;;;;;16.07;84.17;101987.72;5031696;28;20199;-74
2021/07/08 05:04:47;;;;;;;5.03;4.70;;;;;;;15.56;84.31;101910.66;5028022;28;20245;-73
2021/07/08 05:07:14;;;;;;;6.63;5.43;;;;;;;16.27;84.17;102014.81;5027561;28;20833;-73
2021/07/08 05:09:39;;;;;;;5.97;5.37;;;;;;;16.23;83.88;101994.63;5030790;28;20295;-73
2021/07/08 05:12:05;;;;;;;9.87;6.90;;;;;;;16.19;85.53;102007.72;5031310;28;20533;-73
2021/07/08 05:14:31;;;;;;;8.03;5.83;;;;;;;15.85;85.72;101943.78;5027639;28;20344;-73
2021/07/08 05:16:56;;;;;;;7.03;6.43;;;;;;;16.41;85.87;102013.75;5026921;28;21010;-73
2021/07/08 05:19:21;;;;;;;8.70;7.80;;;;;;;15.84;85.49;101912.38;5027320;28;20212;-73
2021/07/08 05:21:49;;;;;;;7.33;6.73;;;;;;;16.51;85.85;101999.78;5029786;28;20223;-73
2021/07/08 05:24:19;;;;;;;7.97;6.63;;;;;;;16.44;85.63;102004.41;5027960;28;20212;-72
2021/07/08 05:26:45;;;;;;;7.40;6.73;;;;;;;16.47;86.32;102010.22;5026964;28;22879;-73
2021/07/08 05:29:11;;;;;;;11.03;7.70;;;;;;;16.18;86.08;101940.25;5029395;28;20517;-73
2021/07/08 05:31:36;;;;;;;9.90;8.37;;;;;;;16.65;86.24;102030.41;5024271;28;20447;-73
2021/07/08 05:34:01;;;;;;;11.50;10.03;;;;;;;16.06;86.11;101952.78;5029494;28;20707;-72
2021/07/08 05:36:27;;;;;;;11.73;8.30;;;;;;;16.48;86.73;102014.56;5030772;28;20238;-73
2021/07/08 05:38:52;;;;;;;10.80;8.23;;;;;;;16.65;84.24;101973.53;5027657;28;20723;-73
2021/07/08 05:41:17;;;;;;;14.70;9.23;;;;;;;16.43;84.95;101975.63;5032837;28;20212;-73
2021/07/08 05:43:43;;;;;;;10.70;7.97;;;;;;;16.21;85.22;101932.56;5026685;28;20269;-73
2021/07/08 05:46:08;;;;;;;7.87;7.17;;;;;;;16.76;85.70;102020.81;5034341;28;20246;-73
2021/07/08 05:48:33;;;;;;;10.00;7.67;;;;;;;16.91;84.84;102043.13;5031149;28;20197;-72
2021/07/08 05:50:59;;;;;;;7.40;6.70;;;;;;;16.76;84.62;101996.44;5034437;28;20279;-72
2021/07/08 05:53:25;;;;;;;7.93;7.23;;;;;;;17.08;84.99;102044.31;5032049;28;20601;-73
2021/07/08 05:55:50;;;;;;;8.73;7.27;;;;;;;17.10;84.64;102052.25;5032942;28;20192;-73
2021/07/08 05:58:15;;;;;;;10.67;7.17;;;;;;;16.90;83.90;101979.13;5032316;28;20453;-73
2021/07/08 06:00:41;;;;;;;8.70;7.10;;;;;;;17.21;84.81;102037.19;5030087;28;20242;-73
2021/07/08 06:03:06;;;;;;;10.53;8.10;;;;;;;17.25;83.95;102038.44;5033711;28;20271;-72
2021/07/08 06:05:31;;;;;;;9.70;8.20;;;;;;;17.06;84.11;102018.47;5029910;28;20247;-73
2021/07/08 06:07:57;;;;;;;9.10;8.20;;;;;;;17.36;82.35;102019.63;5027944;28;20188;-72
2021/07/08 06:10:22;;;;;;;12.80;8.63;;;;;;;17.42;82.04;102036.09;5026690;28;22258;-73
2021/07/08 06:12:48;;;;;;;11.60;7.10;;;;;;;17.36;84.06;102032.34;5028387;28;20206;-73
2021/07/08 06:15:13;;;;;;;15.17;8.80;;;;;;;16.89;82.64;101948.50;5026686;28;20195;-72
2021/07/08 06:17:39;;;;;;;10.30;7.63;;;;;;;17.30;82.82;101996.09;5028016;28;20192;-73
2021/07/08 06:20:05;;;;;;;8.30;7.50;;;;;;;17.46;81.75;102004.75;5026867;28;20204;-72
2021/07/08 06:22:30;;;;;;;11.27;8.00;;;;;;;17.58;80.37;101995.72;5022028;28;20195;-72
2021/07/08 06:24:56;;;;;;;9.33;8.07;;;;;;;17.90;79.66;102041.91;5034731;28;20450;-73
2021/07/08 06:27:21;;;;;;;8.03;7.23;;;;;;;17.86;78.89;102037.97;5030266;28;20198;-73
2021/07/08 06:29:46;;;;;;;16.00;8.87;;;;;;;17.67;78.32;101999.00;5024999;28;20333;-73
2021/07/08 06:32:16;;;;;;;9.27;8.13;;;;;;;17.73;77.65;102006.25;5025557;28;20236;-72
2021/07/08 06:34:41;;;;;;;6.90;5.83;;;;;;;18.11;78.16;102042.59;5024779;28;20207;-73
2021/07/08 06:37:07;;;;;;;9.90;8.40;;;;;;;17.19;76.65;101910.00;5026932;28;20456;-73
2021/07/08 06:39:32;;;;;;;10.20;7.40;;;;;;;17.40;76.40;101954.94;5028364;28;20227;-73
2021/07/08 06:41:57;;;;;;;11.30;8.30;;;;;;;17.91;75.79;102008.28;5029376;28;20207;-73
2021/07/08 06:44:23;;;;;;;10.00;7.80;;;;;;;18.16;76.35;102030.03;5028954;28;20202;-76
2021/07/08 06:46:51;;;;;;;8.60;7.20;;;;;;;18.01;76.45;102005.09;5028042;28;20195;-73
2021/07/08 06:49:16;;;;;;;8.10;7.00;;;;;;;17.92;77.11;101984.69;5032379;28;20204;-73
2021/07/08 06:51:42;;;;;;;7.47;6.70;;;;;;;18.20;78.18;102038.59;5029706;28;20504;-73
2021/07/08 06:54:07;;;;;;;7.20;5.33;;;;;;;18.31;77.45;102046.00;5027783;28;20192;-73
2021/07/08 06:56:33;;;;;;;10.27;6.30;;;;;;;18.25;77.97;102034.16;5028697;28;20187;-73
2021/07/08 06:58:58;;;;;;;10.30;6.90;;;;;;;18.56;76.07;102067.75;5042887;28;20295;-73
2021/07/08 07:01:24;;;;;;;6.33;5.73;;;;;;;18.22;76.66;102001.97;5029436;28;20208;-73
2021/07/08 07:03:49;;;;;;;6.23;5.63;;;;;;;18.44;76.64;102023.34;5024078;28;20645;-72
2021/07/08 07:06:15;;;;;;;9.93;6.90;;;;;;;18.16;74.34;101981.16;5029807;28;20195;-72
2021/07/08 07:08:41;;;;;;;9.93;5.20;;;;;;;18.76;74.48;102066.78;5026008;28;20187;-73
2021/07/08 07:11:07;;;;;;;9.73;6.00;;;;;;;18.99;74.83;102061.50;5033165;28;20184;-73
2021/07/08 07:13:32;;;;;;;10.83;7.17;;;;;;;18.95;73.02;102030.41;5028055;28;20827;-72
2021/07/08 07:15:58;;;;;;;9.77;6.30;;;;;;;18.69;74.58;102026.88;5025010;28;20474;-73
2021/07/08 07:18:24;;;;;;;6.00;5.40;;;;;;;18.88;74.35;102067.69;5028866;28;20194;-73
2021/07/08 07:20:50;;;;;;;6.77;5.60;;;;;;;18.89;74.34;102047.59;5033796;28;20222;-73
2021/07/08 07:23:15;;;;;;;6.20;5.60;;;;;;;18.55;74.23;101995.44;5031160;28;20439;-73
2021/07/08 07:25:41;;;;;;;7.57;5.57;;;;;;;19.01;73.98;102050.44;5030613;28;20188;-72
2021/07/08 07:28:09;;;;;;;7.27;6.13;;;;;;;19.28;73.22;102076.25;5034917;28;20291;-72
2021/07/08 07:30:34;;;;;;;8.80;5.63;;;;;;;19.34;72.79;102074.53;5025416;28;20243;-72
2021/07/08 07:32:59;;;;;;;10.20;6.10;;;;;;;18.84;70.70;102003.97;5032583;28;20480;-72
2021/07/08 07:35:25;;;;;;;6.13;5.53;;;;;;;19.35;71.96;102065.28;5032919;28;20265;-72
2021/07/08 07:37:51;;;;;;;7.73;5.43;;;;;;;19.11;70.94;102023.53;5028851;28;20195;-72
2021/07/08 07:40:17;;;;;;;10.60;5.10;;;;;;;19.57;70.51;102084.72;5035316;28;20247;-73
2021/07/08 07:42:43;;;;;;;8.60;5.37;;;;;;;19.59;69.07;102086.16;5035980;28;20664;-73
2021/07/08 07:45:10;;;;;;;9.13;6.13;;;;;;;19.79;68.96;102094.09;5038235;28;20966;-73
2021/07/08 07:47:37;;;;;;;7.57;5.03;;;;;;;19.80;69.52;102092.19;5032132;28;20469;-73
2021/07/08 07:50:04;;;;;;;8.27;4.93;;;;;;;19.74;69.80;102095.84;5032288;28;20993;-73
2021/07/08 07:52:30;;;;;;;7.07;4.87;;;;;;;19.59;66.23;102036.34;5035607;28;20543;-74
2021/07/08 07:54:55;;;;;;;8.67;5.30;;;;;;;19.91;67.00;102087.88;5033233;28;20580;-73
2021/07/08 07:57:20;;;;;;;6.57;4.30;;;;;;;19.85;66.77;102090.44;5028676;28;20187;-74
2021/07/08 07:59:46;;;;;;;10.03;4.90;;;;;;;19.83;65.50;102057.16;5032280;28;20232;-74
2021/07/08 08:02:13;;;;;;;4.73;4.20;;;;;;;20.00;64.95;102060.06;5027647;28;20215;-73
2021/07/08 08:04:45;;;;;;;5.53;3.30;;;;;;;19.86;66.01;102072.22;5032722;28;20235;-73
2021/07/08 08:09:55;;;;;;;4.87;3.90;;;;;;;19.94;65.97;102077.34;5032515;28;20538;-73
2021/07/08 08:12:22;;;;;;;3.47;3.17;;;;;;;19.81;66.34;102053.00;5030542;28;20452;-73
2021/07/08 08:14:48;;;;;;;4.47;4.07;;;;;;;19.76;67.46;102022.91;5032441;28;20446;-73
2021/07/08 08:17:13;;;;;;;7.63;4.27;;;;;;;19.85;67.01;102048.78;5033546;28;20736;-72
2021/07/08 08:19:39;;;;;;;6.93;4.87;;;;;;;20.04;65.33;102054.97;5027848;28;20211;-73
2021/07/08 08:22:06;;;;;;;7.67;4.90;;;;;;;20.16;65.83;102063.19;5023852;28;20317;-73
2021/07/08 08:24:31;;;;;;;6.73;4.40;;;;;;;20.20;65.06;102054.31;5028513;28;20678;-73
2021/07/08 08:26:57;;;;;;;4.47;4.07;;;;;;;20.04;64.24;102038.63;5033141;28;20439;-73
2021/07/08 08:29:24;;;;;;;6.20;4.50;;;;;;;20.36;63.97;102066.41;5033286;28;20888;-73
2021/07/08 08:31:50;;;;;;;4.83;3.60;;;;;;;20.08;65.15;102021.59;5028978;28;20180;-72
2021/07/08 08:34:15;;;;;;;6.97;4.20;;;;;;;20.03;65.11;102013.31;5032527;28;20485;-73
2021/07/08 08:36:41;;;;;;;6.00;4.33;;;;;;;20.48;64.83;102061.84;5031038;28;20188;-73
2021/07/08 08:39:06;;;;;;;5.53;4.53;;;;;;;20.01;65.63;102023.59;5030212;28;20572;-73
2021/07/08 08:41:32;;;;;;;7.40;5.13;;;;;;;19.98;66.29;102010.44;5028633;28;20619;-73
2021/07/08 08:43:58;;;;;;;7.33;5.27;;;;;;;20.16;67.11;102019.59;5035435;28;20192;-73
2021/07/08 08:46:23;;;;;;;4.77;4.13;;;;;;;19.94;67.09;101970.31;5034785;28;20482;-73
2021/07/08 08:48:48;;;;;;;6.50;4.50;;;;;;;20.57;64.26;102062.34;5029391;28;20198;-74
2021/07/08 08:51:14;;;;;;;7.20;4.97;;;;;;;20.43;65.15;102045.34;5030925;28;20196;-73
2021/07/08 08:53:40;;;;;;;7.60;5.10;;;;;;;20.63;65.30;102075.03;5025735;28;20254;-73
2021/07/08 08:56:06;;;;;;;6.63;5.10;;;;;;;20.78;65.78;102063.66;5034948;28;20204;-73
2021/07/08 08:58:32;;;;;;;7.53;3.83;;;;;;;20.76;62.35;102073.97;5030739;28;20262;-73
2021/07/08 09:00:57;;;;;;;6.03;5.43;;;;;;;20.70;66.75;102092.09;5047646;28;20990;-73
2021/07/08 09:03:25;;;;;;;5.93;4.53;;;;;;;20.73;66.81;102102.53;5027824;28;20282;-72
2021/07/08 09:06:06;;;;;;;8.13;5.07;;;;;;;20.35;64.48;102032.06;5034131;28;20192;-74
2021/07/08 09:08:34;;;;;;;9.97;6.07;;;;;;;20.84;63.46;102103.59;5035187;28;20426;-75
2021/07/08 09:11:18;;;;;;;5.00;4.20;;;;;;;20.90;64.97;102108.09;5032372;28;20439;-73
2021/07/08 09:14:06;;;;;;;4.50;3.97;;;;;;;20.85;64.01;102105.25;5034006;28;20950;-73
2021/07/08 09:16:37;;;;;;;4.90;4.47;;;;;;;20.99;65.46;102103.94;5028638;28;22684;-73
2021/07/08 09:19:11;;;;;;;5.57;5.07;;;;;;;21.16;66.38;102100.50;5030543;28;20507;-73
2021/07/08 09:21:43;;;;;;;6.63;5.90;;;;;;;21.01;64.49;102105.63;5031987;28;20493;-72
2021/07/08 09:24:08;;;;;;;7.77;6.33;;;;;;;20.93;64.50;102110.34;5033451;28;20443;-72
2021/07/08 09:26:36;;;;;;;7.43;5.53;;;;;;;20.87;63.62;102062.22;5031579;28;20446;-73
2021/07/08 09:29:04;;;;;;;5.20;4.70;;;;;;;21.35;62.49;102098.44;5030449;28;20242;-73
2021/07/08 09:31:29;;;;;;;4.80;4.30;;;;;;;21.10;64.10;102087.81;5030960;28;20439;-74
2021/07/08 09:33:55;;;;;;;5.70;3.53;;;;;;;20.93;63.33;102076.81;5032284;28;21070;-73
2021/07/08 09:36:20;;;;;;;7.50;5.27;;;;;;;20.59;63.01;102019.31;5032777;28;20206;-72
2021/07/08 09:38:48;;;;;;;5.63;4.10;;;;;;;20.92;64.35;102070.53;5029971;28;20267;-73
2021/07/08 09:41:17;;;;;;;7.23;5.53;;;;;;;20.80;62.27;102066.97;5033664;28;20300;-73
2021/07/08 09:43:44;;;;;;;6.90;4.33;;;;;;;20.99;62.16;102090.31;5031482;28;20786;-72
2021/07/08 09:46:11;;;;;;;6.83;4.30;;;;;;;21.30;62.42;102121.00;5032724;28;20465;-72
2021/07/08 09:48:36;;;;;;;4.53;3.57;;;;;;;21.40;63.22;102118.53;5029480;28;20477;-73
2021/07/08 09:51:02;;;;;;;4.50;3.60;;;;;;;21.22;63.92;102077.72;5033830;28;20850;-73
2021/07/08 09:53:29;;;;;;;4.47;4.00;;;;;;;21.34;60.74;102104.97;5034205;28;21604;-72
2021/07/08 09:59:08;;;;;;;4.10;3.70;;;;;;;21.38;60.49;102095.28;5032847;28;21303;-72
2021/07/08 10:01:34;;;;;;;6.27;5.33;;;;;;;21.31;59.75;102100.84;5046138;28;20505;-73
2021/07/08 10:04:00;;;;;;;3.60;3.30;;;;;;;21.18;61.22;102057.44;5028902;28;20442;-73
2021/07/08 10:06:27;;;;;;;7.57;5.10;;;;;;;21.51;60.67;102105.09;5029983;28;20191;-73
2021/07/08 10:08:53;;;;;;;4.80;4.17;;;;;;;21.65;61.57;102096.41;5028127;28;20630;-73
2021/07/08 10:11:20;;;;;;;7.30;4.10;;;;;;;21.64;63.39;102094.75;5035414;28;20430;-73
2021/07/08 10:13:45;;;;;;;9.73;3.67;;;;;;;21.72;64.16;102090.78;5033924;28;20581;-73
2021/07/08 10:16:13;;;;;;;7.00;4.40;;;;;;;21.42;61.74;102029.06;5033175;28;20965;-73
2021/07/08 10:18:41;;;;;;;4.37;3.97;;;;;;;21.56;61.72;102067.00;5031989;28;20647;-73
2021/07/08 10:21:08;;;;;;;5.23;4.20;;;;;;;21.50;61.43;102076.97;5034254;28;20502;-73
2021/07/08 10:23:35;;;;;;;3.40;3.10;;;;;;;21.37;61.61;102049.94;5035320;28;20517;-73
2021/07/08 10:26:03;;;;;;;3.93;3.47;;;;;;;21.49;60.22;102088.94;5035558;28;20859;-73
2021/07/08 10:28:32;;;;;;;5.03;3.60;;;;;;;21.38;60.42;102090.66;5031935;28;20458;-73
2021/07/08 10:30:58;;;;;;;4.70;3.10;;;;;;;21.34;61.32;102091.34;5034700;28;21477;-73
2021/07/08 10:33:24;;;;;;;6.23;4.03;;;;;;;21.26;61.55;102064.41;5035370;28;20534;-73
2021/07/08 10:35:54;;;;;;;3.60;3.07;;;;;;;21.46;61.61;102085.88;5034262;28;20195;-73
2021/07/08 10:38:39;;;;;;;2.97;2.77;;;;;;;21.62;62.68;102085.97;5035403;28;20188;-74
2021/07/08 10:41:07;;;;;;;4.33;3.53;;;;;;;21.61;63.16;102088.91;5030964;28;20466;-73
2021/07/08 10:43:43;;;;;;;3.70;2.67;;;;;;;21.48;60.96;102049.09;5033021;28;20439;-74
2021/07/08 10:46:16;;;;;;;4.87;2.67;;;;;;;21.71;60.84;102085.56;5031966;28;20543;-73
2021/07/08 10:48:47;;;;;;;5.37;3.60;;;;;;;21.27;60.62;102033.34;5033992;28;20428;-73
2021/07/08 10:51:38;;;;;;;3.57;2.73;;;;;;;21.46;59.21;102043.03;5033160;28;20438;-73
2021/07/08 10:54:29;;;;;;;4.30;3.20;;;;;;;21.65;60.66;102085.47;5029944;28;20484;-72
2021/07/08 10:56:57;;;;;;;4.50;3.07;;;;;;;21.69;59.01;102082.25;5029694;28;20426;-73
2021/07/08 10:59:35;;;;;;;2.37;2.10;;;;;;;21.87;60.54;102093.81;5032296;28;20474;-73
2021/07/08 11:02:01;;;;;;;2.97;2.03;;;;;;;21.77;59.77;102082.69;5028963;28;20496;-73
2021/07/08 11:04:47;;;;;;;4.00;2.83;;;;;;;21.82;58.91;102099.19;5030794;28;20949;-73
2021/07/08 11:07:19;;;;;;;3.70;2.80;;;;;;;21.77;59.69;102092.78;5030980;28;20234;-73
2021/07/08 11:10:03;;;;;;;4.70;3.37;;;;;;;21.80;60.29;102095.88;5032240;28;20458;-73
2021/07/08 11:13:22;;;;;;;3.53;2.67;;;;;;;21.61;60.49;102086.19;5033874;28;20430;-73
2021/07/08 11:15:51;;;;;;;3.40;2.70;;;;;;;21.72;61.70;102087.22;4991257;28;20442;-73
2021/07/08 11:18:31;;;;;;;2.77;2.40;;;;;;;21.67;59.09;102098.91;5033178;28;20438;-73
2021/07/08 11:20:57;;;;;;;2.73;2.30;;;;;;;21.30;60.20;102058.25;5025993;28;20465;-75
2021/07/08 11:23:42;;;;;;;4.73;2.97;;;;;;;21.49;61.25;102088.94;5027816;28;20489;-73
2021/07/08 11:26:10;;;;;;;4.57;2.80;;;;;;;21.51;62.74;102099.66;5026591;28;20446;-73
2021/07/08 11:29:00;;;;;;;5.43;2.53;;;;;;;21.35;63.99;102082.06;5027151;28;20434;-73